Time;durP1;ratioP1;P1;durP2;ratioP2;P2;SDS_P1;SDS_P2;PMS_P1;PMS_P2;Temp;Humidity;BMP_temperature;BMP_pressure;BME280_temperature;BME280_humidity;BME280_pressure;Samples;Min_cycle;Max_cycle;Signal;HPM_P1;HPM_P2
2024/04/08 00:04:47;;;;;;;;;;;;;;;19.09;48.00;99343.94;10407787;28;820;-71
2024/04/08 00:09:44;;;;;;;;;;;;;;;19.09;48.01;99338.66;10407728;28;776;-71
2024/04/08 00:14:40;;;;;;;;;;;;;;;19.09;48.08;99353.66;10408135;28;1965;-71
2024/04/08 00:19:36;;;;;;;;;;;;;;;19.09;48.02;99353.66;10408118;28;870;-71
2024/04/08 00:24:32;;;;;;;;;;;;;;;19.07;47.91;99342.31;10414213;28;1087;-71
2024/04/08 00:29:28;;;;;;;;;;;;;;;19.07;48.07;99351.06;10415355;28;1171;-71
2024/04/08 00:34:23;;;;;;;;;;;;;;;19.07;48.03;99340.50;10415608;28;1901;-71
2024/04/08 00:39:19;;;;;;;;;;;;;;;19.07;48.03;99332.59;10415462;28;885;-71
2024/04/08 00:44:15;;;;;;;;;;;;;;;19.06;47.90;99322.97;10415267;28;913;-71
2024/04/08 00:49:11;;;;;;;;;;;;;;;19.05;47.96;99300.16;10415892;28;807;-71
2024/04/08 00:54:07;;;;;;;;;;;;;;;19.04;47.88;99294.00;10414805;28;1961;-71
2024/04/08 00:59:03;;;;;;;;;;;;;;;19.05;47.90;99316.84;10414090;28;1016;-71
2024/04/08 01:03:59;;;;;;;;;;;;;;;19.04;48.00;99294.00;10414413;28;947;-71
2024/04/08 01:08:54;;;;;;;;;;;;;;;19.03;47.88;99276.44;10414929;28;949;-71
2024/04/08 01:13:50;;;;;;;;;;;;;;;19.02;48.01;99272.13;10414005;28;1893;-71
2024/04/08 01:18:46;;;;;;;;;;;;;;;19.04;48.11;99287.84;10414488;28;783;-71
2024/04/08 01:23:42;;;;;;;;;;;;;;;19.03;48.08;99302.00;10413739;28;806;-71
2024/04/08 01:28:38;;;;;;;;;;;;;;;19.02;48.07;99279.16;10411895;28;1412;-71
2024/04/08 01:33:34;;;;;;;;;;;;;;;19.02;47.89;99303.81;10410462;28;1901;-71
2024/04/08 01:38:30;;;;;;;;;;;;;;;19.01;47.96;99304.72;10411487;28;866;-71
2024/04/08 01:43:26;;;;;;;;;;;;;;;19.01;47.93;99317.09;10410682;28;888;-71
2024/04/08 01:48:22;;;;;;;;;;;;;;;19.01;47.94;99301.25;10410664;28;914;-70
2024/04/08 01:53:18;;;;;;;;;;;;;;;19.00;48.20;99294.25;10409608;28;1897;-71
2024/04/08 01:58:13;;;;;;;;;;;;;;;18.99;48.02;99317.19;10410901;28;1007;-71
2024/04/08 02:03:09;;;;;;;;;;;;;;;19.00;47.96;99332.09;10410712;28;783;-71
2024/04/08 02:08:05;;;;;;;;;;;;;;;18.99;47.93;99346.25;10409891;28;872;-71
2024/04/08 02:13:01;;;;;;;;;;;;;;;18.98;48.06;99330.47;10409619;28;1901;-71
2024/04/08 02:17:57;;;;;;;;;;;;;;;18.99;48.03;99311.03;10410098;28;917;-71
2024/04/08 02:22:53;;;;;;;;;;;;;;;18.97;48.07;99287.38;10410009;28;990;-71
2024/04/08 02:30:02;;;;;;;;;;;;;;;18.96;48.00;99256.59;11364422;25;1418;-72
2024/04/08 02:34:58;;;;;;;;;;;;;;;18.96;48.18;99261.88;11364771;25;996;-72
2024/04/08 02:39:54;;;;;;;;;;;;;;;18.96;48.03;99261.88;11364026;25;949;-72
2024/04/08 02:44:50;;;;;;;;;;;;;;;18.95;48.21;99254.91;11364589;25;815;-72
2024/04/08 02:49:46;;;;;;;;;;;;;;;18.94;48.15;99233.84;11364403;25;1841;-72
2024/04/08 02:54:42;;;;;;;;;;;;;;;18.94;48.19;99250.56;11364260;25;897;-72
2024/04/08 02:59:37;;;;;;;;;;;;;;;18.93;47.78;99255.91;11363390;25;875;-72
2024/04/08 03:04:33;;;;;;;;;;;;;;;18.94;47.98;99263.78;11363947;25;809;-72
2024/04/08 03:09:29;;;;;;;;;;;;;;;18.92;47.87;99249.78;11363054;25;1825;-72
2024/04/08 03:14:25;;;;;;;;;;;;;;;18.91;48.14;99236.66;11363657;25;902;-72
2024/04/08 03:19:21;;;;;;;;;;;;;;;18.91;47.78;99218.19;11362814;25;897;-72
2024/04/08 03:24:17;;;;;;;;;;;;;;;18.91;47.91;99210.25;11362636;25;860;-72
2024/04/08 03:29:13;;;;;;;;;;;;;;;18.90;47.85;99204.13;11362385;25;1829;-72
2024/04/08 03:34:08;;;;;;;;;;;;;;;18.90;47.78;99179.50;11363083;25;852;-72
2024/04/08 03:39:04;;;;;;;;;;;;;;;18.89;47.93;99160.19;11344111;25;871;-72
2024/04/08 03:44:00;;;;;;;;;;;;;;;18.89;47.95;99141.69;11329188;25;902;-72
2024/04/08 03:48:57;;;;;;;;;;;;;;;18.89;47.88;99140.81;11328928;25;1833;-72
2024/04/08 03:53:53;;;;;;;;;;;;;;;18.88;47.86;99133.84;11328810;25;896;-72
2024/04/08 03:58:49;;;;;;;;;;;;;;;18.86;47.88;99131.28;11329353;25;1126;-72
2024/04/08 04:03:45;;;;;;;;;;;;;;;18.86;47.63;99152.41;11328638;25;930;-72
2024/04/08 04:08:41;;;;;;;;;;;;;;;18.85;47.92;99158.66;11328347;25;1847;-72
2024/04/08 04:13:37;;;;;;;;;;;;;;;18.86;47.90;99149.78;11329011;25;816;-72
2024/04/08 04:18:33;;;;;;;;;;;;;;;18.88;47.96;99153.19;11328006;25;831;-72
2024/04/08 04:23:28;;;;;;;;;;;;;;;18.90;48.04;99153.94;11328712;25;893;-72
2024/04/08 04:28:24;;;;;;;;;;;;;;;18.90;47.90;99148.66;11328333;25;1850;-72
2024/04/08 04:33:20;;;;;;;;;;;;;;;18.92;47.77;99146.81;11328389;25;1208;-72
2024/04/08 04:38:16;;;;;;;;;;;;;;;18.91;47.85;99139.78;11328171;25;881;-72
2024/04/08 04:43:12;;;;;;;;;;;;;;;18.92;47.65;99152.09;11328068;25;877;-72
2024/04/08 04:48:08;;;;;;;;;;;;;;;18.94;47.76;99150.22;11327751;25;1855;-72
2024/04/08 04:53:04;;;;;;;;;;;;;;;18.96;47.95;99150.94;11326245;25;1179;-72
2024/04/08 04:57:59;;;;;;;;;;;;;;;18.97;47.74;99139.47;11328319;25;888;-72
2024/04/08 05:02:56;;;;;;;;;;;;;;;18.99;47.54;99124.38;11328116;25;902;-72
2024/04/08 05:07:52;;;;;;;;;;;;;;;19.00;47.82;99107.59;11327971;25;1853;-72
2024/04/08 05:12:47;;;;;;;;;;;;;;;19.01;47.88;99111.06;11327917;25;889;-72
2024/04/08 05:17:43;;;;;;;;;;;;;;;19.02;47.94;99105.72;11327718;25;895;-72
2024/04/08 05:22:44;;;;;;;;;;;;;;;19.03;47.94;99096.00;11327632;25;885;-72
2024/04/08 05:27:40;;;;;;;;;;;;;;;19.05;47.94;99115.25;11326409;25;1848;-72
2024/04/08 05:32:36;;;;;;;;;;;;;;;19.05;47.75;99134.59;11326670;25;1033;-72
2024/04/08 05:37:32;;;;;;;;;;;;;;;19.07;47.66;99145.03;11326412;25;871;-72
2024/04/08 05:42:28;;;;;;;;;;;;;;;19.08;48.04;99159.97;11326309;25;893;-72
2024/04/08 05:47:24;;;;;;;;;;;;;;;19.08;47.94;99153.84;11326730;25;1848;-72
2024/04/08 05:52:20;;;;;;;;;;;;;;;19.08;47.87;99154.69;11325948;25;969;-72
2024/04/08 05:57:15;;;;;;;;;;;;;;;19.09;47.79;99153.72;11325847;25;1017;-72
2024/04/08 06:02:11;;;;;;;;;;;;;;;19.11;47.77;99146.56;11325020;25;819;-72
2024/04/08 06:07:08;;;;;;;;;;;;;;;19.11;47.94;99141.28;11325363;25;1818;-72
2024/04/08 06:12:04;;;;;;;;;;;;;;;19.12;47.71;99134.22;11325321;25;922;-72
2024/04/08 06:17:00;;;;;;;;;;;;;;;19.12;47.92;99137.69;11325748;25;803;-72
2024/04/08 06:21:56;;;;;;;;;;;;;;;19.13;47.91;99135.94;11324937;25;896;-72
2024/04/08 06:26:52;;;;;;;;;;;;;;;19.15;47.75;99136.66;11324589;25;1842;-72
2024/04/08 06:31:48;;;;;;;;;;;;;;;19.16;47.64;99128.66;11324658;25;863;-73
2024/04/08 06:36:44;;;;;;;;;;;;;;;19.17;47.71;99129.50;11323687;25;874;-72
2024/04/08 06:41:40;;;;;;;;;;;;;;;19.17;47.80;99138.28;11323481;25;839;-73
2024/04/08 06:46:36;;;;;;;;;;;;;;;19.19;47.60;99139.06;11323351;25;1832;-72
2024/04/08 06:51:32;;;;;;;;;;;;;;;19.20;47.69;99142.53;11323229;25;872;-72
2024/04/08 06:56:28;;;;;;;;;;;;;;;19.21;47.81;99147.75;11323006;25;854;-73
2024/04/08 07:01:25;;;;;;;;;;;;;;;19.23;47.70;99131.78;11323495;25;913;-72
2024/04/08 07:06:20;;;;;;;;;;;;;;;19.24;47.69;99117.66;11322486;25;1848;-73
2024/04/08 07:11:16;;;;;;;;;;;;;;;19.25;47.76;99116.69;11322456;25;845;-72
2024/04/08 07:16:12;;;;;;;;;;;;;;;19.25;47.71;99111.41;11328995;25;950;-72
2024/04/08 07:21:09;;;;;;;;;;;;;;;19.25;47.80;99114.91;11329898;25;867;-71
2024/04/08 07:26:05;;;;;;;;;;;;;;;19.25;47.82;99125.47;11329687;25;1922;-69
2024/04/08 07:31:00;;;;;;;;;;;;;;;19.25;47.91;99114.06;11330275;25;835;-72
2024/04/08 07:35:56;;;;;;;;;;;;;;;19.26;47.88;99118.41;11330079;25;893;-78
2024/04/08 07:40:52;;;;;;;;;;;;;;;19.26;47.88;99119.25;11329931;25;977;-75
2024/04/08 07:45:48;;;;;;;;;;;;;;;19.26;47.75;99123.69;11329783;25;1812;-74
2024/04/08 07:50:44;;;;;;;;;;;;;;;19.26;47.84;99126.34;11329634;25;995;-76
2024/04/08 07:55:41;;;;;;;;;;;;;;;19.25;47.75;99111.41;11329463;25;879;-75
2024/04/08 08:00:37;;;;;;;;;;;;;;;19.26;47.73;99113.13;11329338;25;813;-75
2024/04/08 08:05:33;;;;;;;;;;;;;;;19.27;47.78;99122.75;11329847;25;1856;-75
2024/04/08 08:10:28;;;;;;;;;;;;;;;19.28;47.90;99127.06;11329142;25;836;-75
2024/04/08 08:15:24;;;;;;;;;;;;;;;19.29;47.73;99120.03;11328810;25;1193;-75
2024/04/08 08:20:21;;;;;;;;;;;;;;;19.30;47.73;99125.19;11328785;25;840;-76
2024/04/08 08:25:17;;;;;;;;;;;;;;;19.29;47.64;99112.94;11328425;25;1834;-75
2024/04/08 08:30:13;;;;;;;;;;;;;;;19.29;47.67;99107.66;11327815;25;840;-75
2024/04/08 08:35:08;;;;;;;;;;;;;;;19.31;47.66;99079.34;11327681;25;827;-75
2024/04/08 08:40:05;;;;;;;;;;;;;;;19.32;47.57;99065.19;11328222;25;954;-75
2024/04/08 08:45:01;;;;;;;;;;;;;;;19.33;47.65;99069.53;11328027;25;1162;-75
2024/04/08 08:49:57;;;;;;;;;;;;;;;19.35;47.72;99072.94;11327253;25;1852;-75
2024/04/08 08:54:53;;;;;;;;;;;;;;;19.35;47.70;99058.88;11327719;25;938;-75
2024/04/08 08:59:49;;;;;;;;;;;;;;;19.35;47.71;99054.44;11327671;25;809;-76
2024/04/08 09:04:45;;;;;;;;;;;;;;;19.36;47.46;99050.00;11327496;25;904;-75
2024/04/08 09:09:41;;;;;;;;;;;;;;;19.37;47.52;99052.56;11327337;25;1848;-75
2024/04/08 09:14:37;;;;;;;;;;;;;;;19.38;47.62;99059.53;11327313;25;832;-75
2024/04/08 09:19:33;;;;;;;;;;;;;;;19.38;47.57;99054.25;11327146;25;827;-76
2024/04/08 09:24:28;;;;;;;;;;;;;;;19.39;47.41;99061.25;11326240;25;897;-75
2024/04/08 09:29:24;;;;;;;;;;;;;;;19.39;47.50;99061.25;11327009;25;1851;-75
2024/04/08 09:34:20;;;;;;;;;;;;;;;19.41;47.56;99062.00;11327340;25;942;-75
2024/04/08 09:39:16;;;;;;;;;;;;;;;19.42;47.50;99054.91;11325305;25;873;-75
2024/04/08 09:44:12;;;;;;;;;;;;;;;19.43;47.57;99051.31;11326332;25;902;-75
2024/04/08 09:49:08;;;;;;;;;;;;;;;19.44;47.51;99047.72;11326126;25;1848;-75
2024/04/08 09:54:04;;;;;;;;;;;;;;;19.43;47.47;99043.41;11326755;25;881;-75
2024/04/08 09:59:00;;;;;;;;;;;;;;;19.45;47.33;99034.44;11326459;25;909;-75
2024/04/08 10:03:55;;;;;;;;;;;;;;;19.46;47.54;99036.13;11325674;25;886;-75
2024/04/08 10:08:51;;;;;;;;;;;;;;;19.46;47.51;99028.19;11325497;25;1820;-75
2024/04/08 10:13:47;;;;;;;;;;;;;;;19.47;47.48;99027.25;11325338;25;827;-75
2024/04/08 10:18:43;;;;;;;;;;;;;;;19.48;47.52;99036.88;11324996;25;854;-75
2024/04/08 10:23:39;;;;;;;;;;;;;;;19.49;47.54;99037.72;11325659;25;878;-75
2024/04/08 10:28:35;;;;;;;;;;;;;;;19.49;47.69;99030.66;11324558;25;1825;-75
2024/04/08 10:33:31;;;;;;;;;;;;;;;19.50;47.49;99028.88;11323886;25;961;-75
2024/04/08 10:38:26;;;;;;;;;;;;;;;19.50;47.55;99015.66;11323693;25;821;-75
2024/04/08 10:43:23;;;;;;;;;;;;;;;19.52;47.45;99018.19;11324204;25;980;-75
2024/04/08 10:48:19;;;;;;;;;;;;;;;19.52;47.65;99021.69;11326809;25;1828;-75
2024/04/08 10:53:14;;;;;;;;;;;;;;;19.53;47.52;99019.91;11331234;25;875;-75
2024/04/08 10:58:14;;;;;;;;;;;;;;;19.53;47.43;99019.91;11331390;25;881;-75
2024/04/08 11:03:09;;;;;;;;;;;;;;;19.54;47.57;99011.84;11329375;25;1148;-75
2024/04/08 11:08:06;;;;;;;;;;;;;;;19.56;47.45;99019.69;11328568;25;1858;-75
2024/04/08 11:13:01;;;;;;;;;;;;;;;19.57;47.38;99021.38;11329814;25;924;-75
2024/04/08 11:17:57;;;;;;;;;;;;;;;19.58;47.38;99015.19;11329318;25;890;-77
2024/04/08 11:22:54;;;;;;;;;;;;;;;19.57;47.62;99011.69;11329703;25;895;-75
2024/04/08 11:27:50;;;;;;;;;;;;;;;19.59;47.44;99014.22;11328710;25;1852;-75
2024/04/08 11:32:46;;;;;;;;;;;;;;;19.59;47.36;99012.41;11329303;25;997;-75
2024/04/08 11:37:41;;;;;;;;;;;;;;;19.60;47.31;99016.78;11328665;25;988;-75
2024/04/08 11:42:37;;;;;;;;;;;;;;;19.60;47.48;99014.13;11329043;25;871;-75
2024/04/08 11:47:33;;;;;;;;;;;;;;;19.58;47.43;98999.31;11328357;25;1844;-75
2024/04/08 11:52:29;;;;;;;;;;;;;;;19.57;47.03;99003.75;11328988;25;1636;-76
2024/04/08 11:57:25;;;;;;;;;;;;;;;19.56;47.50;98980.91;11328829;25;883;-75
2024/04/08 12:02:21;;;;;;;;;;;;;;;19.56;47.57;98951.81;11328635;25;846;-75
2024/04/08 12:07:17;;;;;;;;;;;;;;;19.60;47.46;98963.91;11328563;25;1820;-70
2024/04/08 12:12:13;;;;;;;;;;;;;;;19.62;47.32;98946.16;11329158;25;873;-72
2024/04/08 12:17:09;;;;;;;;;;;;;;;19.64;47.19;98951.34;11328802;25;872;-71
2024/04/08 12:22:05;;;;;;;;;;;;;;;19.65;47.40;98953.88;11328789;25;921;-71
2024/04/08 12:27:01;;;;;;;;;;;;;;;19.63;47.30;98961.06;11328100;25;1840;-71
2024/04/08 12:31:56;;;;;;;;;;;;;;;19.65;47.44;98951.25;11329255;25;798;-71
2024/04/08 12:36:52;;;;;;;;;;;;;;;19.68;47.42;98966.09;11328402;25;929;-71
2024/04/08 12:41:48;;;;;;;;;;;;;;;19.68;47.37;98956.38;11328194;25;897;-71
2024/04/08 12:46:44;;;;;;;;;;;;;;;19.73;47.34;98957.84;11328008;25;1856;-71
2024/04/08 12:51:40;;;;;;;;;;;;;;;19.75;47.33;98955.97;11327945;25;832;-71
2024/04/08 12:56:36;;;;;;;;;;;;;;;19.77;47.48;98962.00;11328486;25;743;-71
2024/04/08 13:01:32;;;;;;;;;;;;;;;19.77;47.41;98944.34;11327662;25;895;-71
2024/04/08 13:06:27;;;;;;;;;;;;;;;19.76;47.44;98947.94;11327456;25;1824;-71
2024/04/08 13:11:23;;;;;;;;;;;;;;;19.74;47.71;98941.91;11326572;25;826;-71
2024/04/08 13:16:19;;;;;;;;;;;;;;;19.76;47.71;98941.81;11327902;25;842;-71
2024/04/08 13:21:15;;;;;;;;;;;;;;;19.80;47.30;98927.44;11327076;25;921;-71
2024/04/08 13:26:11;;;;;;;;;;;;;;;19.84;47.47;98923.66;11326524;25;1832;-70
2024/04/08 13:31:07;;;;;;;;;;;;;;;19.82;47.58;98931.69;11326779;25;1674;-72
2024/04/08 13:36:09;;;;;;;;;;;;;;;19.83;47.67;98932.53;11327294;25;905;-71
2024/04/08 13:41:05;;;;;;;;;;;;;;;19.90;47.54;98933.81;11325899;25;918;-71
2024/04/08 13:46:01;;;;;;;;;;;;;;;19.86;47.54;98935.84;11326323;25;1820;-71
2024/04/08 13:50:57;;;;;;;;;;;;;;;19.87;47.57;98926.09;11325602;25;929;-71
2024/04/08 13:55:53;;;;;;;;;;;;;;;19.86;47.69;98933.19;11325462;25;875;-71
2024/04/08 14:00:50;;;;;;;;;;;;;;;19.88;47.65;98927.78;11325335;25;842;-72
2024/04/08 14:05:45;;;;;;;;;;;;;;;19.85;47.68;98931.47;11325358;25;1828;-71
2024/04/08 14:10:41;;;;;;;;;;;;;;;19.83;47.81;98938.69;11326143;25;811;-71
2024/04/08 14:15:37;;;;;;;;;;;;;;;19.81;47.71;98945.84;11325173;25;954;-71
2024/04/08 14:20:33;;;;;;;;;;;;;;;19.80;47.59;98938.00;11325605;25;953;-71
2024/04/08 14:25:31;;;;;;;;;;;;;;;19.78;47.72;98931.97;11324791;25;1829;-71
2024/04/08 14:30:27;;;;;;;;;;;;;;;19.78;47.71;98910.81;11324065;25;801;-71
2024/04/08 14:35:23;;;;;;;;;;;;;;;19.76;47.60;98907.44;11323781;25;962;-71
2024/04/08 14:40:21;;;;;;;;;;;;;;;19.75;47.76;98900.44;11323732;25;1058;-72
2024/04/08 14:45:17;;;;;;;;;;;;;;;19.73;47.93;98882.06;11324198;25;1825;-72
2024/04/08 14:50:12;;;;;;;;;;;;;;;19.72;47.76;98882.97;11324038;25;856;-71
2024/04/08 14:55:10;;;;;;;;;;;;;;;19.71;47.81;98878.66;11323169;25;867;-71
2024/04/08 15:00:07;;;;;;;;;;;;;;;19.69;47.84;98875.25;11322766;25;940;-73
2024/04/08 15:05:03;;;;;;;;;;;;;;;19.73;47.75;98858.25;11322213;25;890;-71
2024/04/08 15:09:59;;;;;;;;;;;;;;;19.80;47.55;98845.47;11322735;25;1851;-71
2024/04/08 15:14:55;;;;;;;;;;;;;;;19.78;47.49;98840.28;11322698;25;894;-72
2024/04/08 15:19:51;;;;;;;;;;;;;;;20.05;47.22;98834.09;11321706;25;832;-71
2024/04/08 15:24:46;;;;;;;;;;;;;;;20.17;47.29;98829.78;11321572;25;809;-72
2024/04/08 15:29:43;;;;;;;;;;;;;;;20.22;47.12;98828.50;11320983;25;1832;-71
2024/04/08 15:34:44;;;;;;;;;;;;;;;20.22;47.31;98823.22;11324530;25;1620;-72
2024/04/08 15:39:39;;;;;;;;;;;;;;;20.17;47.73;98817.38;11328895;25;883;-71
2024/04/08 15:44:35;;;;;;;;;;;;;;;20.10;47.80;98803.75;11328886;25;897;-72
2024/04/08 15:49:31;;;;;;;;;;;;;;;20.03;47.82;98801.63;11328559;25;1820;-71
2024/04/08 15:54:27;;;;;;;;;;;;;;;20.00;47.98;98801.81;11329149;25;903;-72
2024/04/08 15:59:23;;;;;;;;;;;;;;;19.97;47.89;98789.66;11328321;25;817;-72
2024/04/08 16:04:19;;;;;;;;;;;;;;;19.95;47.95;98780.97;11328174;25;881;-71
2024/04/08 16:09:15;;;;;;;;;;;;;;;19.93;47.83;98775.78;11328004;25;1824;-71
2024/04/08 16:14:11;;;;;;;;;;;;;;;19.92;47.83;98766.16;11328316;25;876;-73
2024/04/08 16:19:08;;;;;;;;;;;;;;;19.91;47.81;98761.84;11327591;25;937;-71
2024/04/08 16:24:03;;;;;;;;;;;;;;;19.90;48.10;98760.13;11327585;25;868;-71
2024/04/08 16:28:59;;;;;;;;;;;;;;;19.89;48.17;98760.25;11328103;25;1833;-71
2024/04/08 16:33:55;;;;;;;;;;;;;;;19.88;47.94;98753.22;11328018;25;858;-72
2024/04/08 16:38:51;;;;;;;;;;;;;;;19.87;48.15;98748.91;11327863;25;875;-72
2024/04/08 16:43:47;;;;;;;;;;;;;;;19.86;48.29;98750.72;11327896;25;990;-72
2024/04/08 16:48:43;;;;;;;;;;;;;;;19.84;48.47;98743.84;11327239;25;1832;-72
2024/04/08 16:53:40;;;;;;;;;;;;;;;19.82;48.19;98741.28;11328092;25;805;-72
2024/04/08 16:58:36;;;;;;;;;;;;;;;19.82;48.30;98748.38;11327168;25;890;-72
2024/04/08 17:03:32;;;;;;;;;;;;;;;19.80;48.32;98722.03;11327157;25;830;-72
2024/04/08 17:08:28;;;;;;;;;;;;;;;19.80;48.47;98719.38;11327498;25;1827;-72
2024/04/08 17:13:24;;;;;;;;;;;;;;;19.77;48.46;98711.66;11327444;25;817;-72
2024/04/08 17:18:20;;;;;;;;;;;;;;;19.77;48.50;98705.53;11326639;25;910;-72
2024/04/08 17:23:16;;;;;;;;;;;;;;;19.76;48.49;98694.13;11326604;25;883;-72
2024/04/08 17:28:12;;;;;;;;;;;;;;;19.76;48.48;98683.53;11326322;25;1855;-72
2024/04/08 17:33:08;;;;;;;;;;;;;;;19.75;48.64;98680.97;11326164;25;872;-72
2024/04/08 17:38:04;;;;;;;;;;;;;;;19.74;48.62;98685.44;11326013;25;973;-72
2024/04/08 17:42:59;;;;;;;;;;;;;;;19.73;48.52;98688.16;11326013;25;1056;-72
2024/04/08 17:47:57;;;;;;;;;;;;;;;19.71;48.75;98680.34;11325698;25;1848;-71
2024/04/08 17:52:53;;;;;;;;;;;;;;;19.72;48.59;98678.56;11325499;25;893;-71
2024/04/08 17:57:48;;;;;;;;;;;;;;;19.69;48.65;98683.09;11324426;25;862;-71
2024/04/08 18:02:44;;;;;;;;;;;;;;;19.68;48.54;98681.41;11325375;25;870;-72
2024/04/08 18:07:42;;;;;;;;;;;;;;;19.68;48.60;98685.84;11324908;25;1824;-73
2024/04/08 18:12:38;;;;;;;;;;;;;;;19.67;48.79;98679.69;11324862;25;863;-73
2024/04/08 18:17:34;;;;;;;;;;;;;;;19.66;48.69;98674.50;11325362;25;945;-72
2024/04/08 18:22:30;;;;;;;;;;;;;;;19.65;48.67;98675.47;11325081;25;974;-72
2024/04/08 18:27:26;;;;;;;;;;;;;;;19.64;48.67;98682.53;11324683;25;1840;-72
2024/04/08 18:32:22;;;;;;;;;;;;;;;19.64;48.57;98671.13;11325076;25;908;-71
2024/04/08 18:37:18;;;;;;;;;;;;;;;19.63;48.41;98661.50;11323999;25;857;-73
2024/04/08 18:42:14;;;;;;;;;;;;;;;19.63;48.71;98648.28;11323842;25;841;-70
2024/04/08 18:47:10;;;;;;;;;;;;;;;19.62;48.62;98647.44;11324198;25;1852;-73
2024/04/08 18:52:06;;;;;;;;;;;;;;;19.61;48.69;98634.31;11324132;25;870;-72
2024/04/08 18:57:02;;;;;;;;;;;;;;;19.61;48.74;98634.31;11324061;25;788;-72
2024/04/08 19:01:58;;;;;;;;;;;;;;;19.61;48.76;98642.25;11323097;25;821;-72
2024/04/08 19:06:54;;;;;;;;;;;;;;;19.60;48.72;98638.75;11323588;25;1876;-72
2024/04/08 19:11:51;;;;;;;;;;;;;;;19.59;48.83;98642.34;11329517;25;892;-73
2024/04/08 19:16:52;;;;;;;;;;;;;;;19.60;48.78;98640.56;11330253;25;939;-72
2024/04/08 19:21:48;;;;;;;;;;;;;;;19.59;48.90;98631.78;11330250;25;900;-73
2024/04/08 19:26:44;;;;;;;;;;;;;;;19.59;48.60;98628.28;11329871;25;1858;-72
2024/04/08 19:31:40;;;;;;;;;;;;;;;19.58;48.90;98616.88;11329954;25;814;-72
2024/04/08 19:36:36;;;;;;;;;;;;;;;19.58;48.77;98622.16;11329782;25;815;-72
2024/04/08 19:41:32;;;;;;;;;;;;;;;19.58;48.87;98610.75;11328913;25;848;-72
2024/04/08 19:46:28;;;;;;;;;;;;;;;19.58;48.77;98573.75;11329432;25;1840;-72
2024/04/08 19:51:24;;;;;;;;;;;;;;;19.58;48.75;98573.75;11328664;25;944;-72
2024/04/08 19:56:23;;;;;;;;;;;;;;;19.56;48.85;98565.06;11328457;25;829;-72
2024/04/08 20:01:19;;;;;;;;;;;;;;;19.56;48.85;98570.34;11328312;25;877;-72
2024/04/08 20:06:14;;;;;;;;;;;;;;;19.57;48.71;98587.88;11328763;25;1842;-72
2024/04/08 20:11:10;;;;;;;;;;;;;;;19.56;48.80;98610.84;11328721;25;827;-72
2024/04/08 20:16:06;;;;;;;;;;;;;;;19.55;48.75;98618.88;11328702;25;887;-72
2024/04/08 20:21:02;;;;;;;;;;;;;;;19.56;48.51;98625.84;11328379;25;926;-71
2024/04/08 20:25:58;;;;;;;;;;;;;;;19.55;48.86;98616.25;11328026;25;1842;-71
2024/04/08 20:30:54;;;;;;;;;;;;;;;19.54;48.77;98620.66;11328674;25;875;-71
2024/04/08 20:35:50;;;;;;;;;;;;;;;19.55;48.75;98626.81;11328737;25;863;-71
2024/04/08 20:40:45;;;;;;;;;;;;;;;19.54;48.62;98625.94;11329070;25;912;-71
2024/04/08 20:45:41;;;;;;;;;;;;;;;19.55;48.74;98637.38;11328152;25;1837;-71
2024/04/08 20:50:37;;;;;;;;;;;;;;;19.53;48.70;98618.97;11327989;25;831;-71
2024/04/08 20:55:33;;;;;;;;;;;;;;;19.53;48.77;98607.56;11328627;25;880;-71
2024/04/08 21:00:29;;;;;;;;;;;;;;;19.53;48.67;98600.47;11328474;25;897;-71
2024/04/08 21:05:25;;;;;;;;;;;;;;;19.53;48.82;98599.63;11327990;25;1836;-71
2024/04/08 21:10:21;;;;;;;;;;;;;;;19.52;48.76;98592.66;11327592;25;949;-71
2024/04/08 21:15:17;;;;;;;;;;;;;;;19.51;48.64;98577.75;11327347;25;918;-71
2024/04/08 21:20:12;;;;;;;;;;;;;;;19.53;48.58;98597.00;11327212;25;1161;-71
2024/04/08 21:25:09;;;;;;;;;;;;;;;19.52;48.63;98597.94;11326826;25;1059;-71
2024/04/08 21:30:05;;;;;;;;;;;;;;;19.51;48.92;98583.03;11326870;25;1828;-71
2024/04/08 21:35:00;;;;;;;;;;;;;;;19.51;48.59;98572.47;11326020;25;842;-71
2024/04/08 21:39:56;;;;;;;;;;;;;;;19.51;48.67;98564.53;11326428;25;871;-71
2024/04/08 21:44:52;;;;;;;;;;;;;;;19.49;48.66;98557.56;11327105;25;816;-71
2024/04/08 21:49:48;;;;;;;;;;;;;;;19.49;48.57;98554.94;11326177;25;1852;-71
2024/04/08 21:54:44;;;;;;;;;;;;;;;19.49;48.67;98554.06;11326186;25;921;-71
2024/04/08 21:59:40;;;;;;;;;;;;;;;19.49;48.67;98532.91;11325948;25;1057;-71
2024/04/08 22:04:36;;;;;;;;;;;;;;;19.48;48.32;98513.56;11326522;25;828;-71
2024/04/08 22:09:31;;;;;;;;;;;;;;;19.48;48.75;98505.66;11326127;25;1825;-71
2024/04/08 22:14:27;;;;;;;;;;;;;;;19.47;48.85;98501.31;11325509;25;1156;-71
2024/04/08 22:19:23;;;;;;;;;;;;;;;19.46;48.52;98475.84;11325205;25;815;-71
2024/04/08 22:24:19;;;;;;;;;;;;;;;19.47;48.54;98488.13;11325858;25;826;-71
2024/04/08 22:29:15;;;;;;;;;;;;;;;19.47;48.62;98482.81;11324034;25;1841;-71
2024/04/08 22:34:11;;;;;;;;;;;;;;;19.47;48.66;98476.69;11324064;25;919;-71
2024/04/08 22:39:07;;;;;;;;;;;;;;;19.47;48.53;98482.00;11324114;25;843;-71
2024/04/08 22:44:03;;;;;;;;;;;;;;;19.46;48.70;98473.19;11326840;25;893;-71
2024/04/08 22:49:00;;;;;;;;;;;;;;;19.45;48.65;98474.16;11330980;25;1825;-71
2024/04/08 22:53:56;;;;;;;;;;;;;;;19.46;48.61;98482.91;11330890;25;923;-71
2024/04/08 22:58:51;;;;;;;;;;;;;;;19.45;48.58;98487.38;11330768;25;888;-71
2024/04/08 23:03:47;;;;;;;;;;;;;;;19.46;48.61;98482.91;11331351;25;771;-71
2024/04/08 23:08:43;;;;;;;;;;;;;;;19.45;48.48;98484.72;11330519;25;1829;-71
2024/04/08 23:13:39;;;;;;;;;;;;;;;19.44;48.80;98464.56;11331067;25;917;-71
2024/04/08 23:18:35;;;;;;;;;;;;;;;19.44;48.65;98461.91;11330206;25;926;-71
2024/04/08 23:23:31;;;;;;;;;;;;;;;19.43;48.36;98457.56;11330107;25;873;-71
2024/04/08 23:28:27;;;;;;;;;;;;;;;19.43;48.58;98462.84;11330740;25;1830;-71
2024/04/08 23:33:23;;;;;;;;;;;;;;;19.43;48.50;98469.94;11330365;25;887;-71
2024/04/08 23:38:19;;;;;;;;;;;;;;;19.42;48.49;98487.59;11330090;25;953;-71
2024/04/08 23:43:15;;;;;;;;;;;;;;;19.42;48.46;98482.31;11330169;25;815;-71
2024/04/08 23:48:10;;;;;;;;;;;;;;;19.42;48.39;98484.09;11330479;25;1836;-71
2024/04/08 23:53:07;;;;;;;;;;;;;;;19.42;48.47;98481.47;11329853;25;854;-71
